Time;durP1;ratioP1;P1;durP2;ratioP2;P2;SDS_P1;SDS_P2;PMS_P1;PMS_P2;Temp;Humidity;BMP_temperature;BMP_pressure;BME280_temperature;BME280_humidity;BME280_pressure;Samples;Min_cycle;Max_cycle;Signal;HPM_P1;HPM_P2
2022/09/17 00:00:27;;;;;;;25.13;18.00;;;;;;;12.75;100.00;100273.09;5053347;28;20485;-50
2022/09/17 00:02:56;;;;;;;32.90;17.60;;;;;;;12.78;100.00;100267.31;5053190;28;20451;-49
2022/09/17 00:05:23;;;;;;;31.27;17.83;;;;;;;12.81;100.00;100267.94;5053622;28;20969;-49
2022/09/17 00:07:52;;;;;;;29.27;17.67;;;;;;;12.84;100.00;100272.84;5053732;28;20435;-48
2022/09/17 00:10:22;;;;;;;29.23;18.10;;;;;;;12.82;100.00;100272.22;5053610;28;20428;-50
2022/09/17 00:12:50;;;;;;;25.20;18.77;;;;;;;12.81;100.00;100270.59;5052726;28;20879;-48
2022/09/17 00:15:18;;;;;;;33.50;18.57;;;;;;;12.80;100.00;100275.13;5053378;28;20483;-52
2022/09/17 00:17:45;;;;;;;25.40;18.93;;;;;;;12.78;100.00;100267.31;5054023;28;20455;-49
2022/09/17 00:20:14;;;;;;;25.00;17.50;;;;;;;12.78;100.00;100269.19;5053399;28;20500;-48
2022/09/17 00:22:42;;;;;;;22.97;16.80;;;;;;;12.71;100.00;100269.25;5052721;28;20513;-49
2022/09/17 00:25:09;;;;;;;23.43;17.67;;;;;;;12.75;100.00;100273.09;5052508;28;20556;-50
2022/09/17 00:27:37;;;;;;;21.03;18.00;;;;;;;12.75;100.00;100277.66;5053221;28;20850;-51
2022/09/17 00:30:05;;;;;;;28.60;18.57;;;;;;;12.75;100.00;100270.44;5053437;28;20770;-49
2022/09/17 00:32:33;;;;;;;23.30;18.50;;;;;;;12.76;100.00;100279.28;5052568;28;21049;-49
2022/09/17 00:35:01;;;;;;;26.30;18.23;;;;;;;12.75;100.00;100277.66;5053109;28;20520;-51
2022/09/17 00:37:29;;;;;;;18.53;16.10;;;;;;;12.74;100.00;100282.19;5053011;28;20499;-54
2022/09/17 00:39:57;;;;;;;23.70;16.87;;;;;;;12.67;100.00;100286.78;5052895;28;20928;-48
2022/09/17 00:42:25;;;;;;;28.20;18.40;;;;;;;12.69;100.00;100286.56;5052155;28;20494;-53
2022/09/17 00:44:53;;;;;;;35.87;17.73;;;;;;;12.71;100.00;100284.50;5052829;28;20481;-48
2022/09/17 00:47:27;;;;;;;38.37;17.90;;;;;;;12.67;100.00;100285.97;5052993;28;20435;-52
2022/09/17 00:49:59;;;;;;;33.20;17.70;;;;;;;12.70;100.00;100289.00;5052815;28;20431;-49
2022/09/17 00:52:32;;;;;;;21.83;16.20;;;;;;;12.67;100.00;100291.31;5048168;28;20466;-48
2022/09/17 00:55:07;;;;;;;32.73;17.53;;;;;;;12.67;100.00;100286.78;5052796;28;20880;-50
2022/09/17 00:57:35;;;;;;;25.30;17.87;;;;;;;12.72;100.00;100294.94;5052881;28;20442;-47
2022/09/17 01:00:06;;;;;;;30.40;15.77;;;;;;;12.75;100.00;100294.50;5052525;28;21010;-48
2022/09/17 01:02:34;;;;;;;25.57;16.43;;;;;;;12.76;100.00;100296.16;5051407;28;20968;-49
2022/09/17 01:05:02;;;;;;;19.43;15.80;;;;;;;12.68;100.00;100287.59;5047010;28;20439;-54
2022/09/17 01:07:53;;;;;;;25.33;16.20;;;;;;;12.61;100.00;100293.00;5050238;28;20484;-50
2022/09/17 01:10:39;;;;;;;28.90;17.30;;;;;;;12.59;100.00;100287.06;5049552;28;20435;-49
2022/09/17 01:13:19;;;;;;;21.43;15.40;;;;;;;12.54;100.00;100296.81;5051649;28;20471;-49
2022/09/17 01:15:54;;;;;;;22.00;15.57;;;;;;;12.53;100.00;100287.97;5052326;28;20427;-48
2022/09/17 01:18:35;;;;;;;20.57;16.23;;;;;;;12.55;100.00;100299.25;5052457;28;20538;-48
2022/09/17 01:21:33;;;;;;;20.63;16.10;;;;;;;12.53;100.00;100290.63;5052352;28;20451;-48
2022/09/17 01:24:43;;;;;;;21.70;17.37;;;;;;;12.55;100.00;100291.22;5051453;28;20812;-49
2022/09/17 01:27:55;;;;;;;23.00;15.10;;;;;;;12.52;100.00;100298.84;5052240;28;20435;-47
2022/09/17 01:30:52;;;;;;;20.73;16.93;;;;;;;12.54;100.00;100289.59;5052204;28;20440;-48
2022/09/17 01:33:29;;;;;;;17.63;15.80;;;;;;;12.57;100.00;100283.78;5051397;28;20467;-47
2022/09/17 01:36:10;;;;;;;21.17;16.30;;;;;;;12.63;100.00;100288.25;5051970;28;20863;-50
2022/09/17 01:38:45;;;;;;;19.33;15.73;;;;;;;12.61;100.00;100298.38;5051922;28;20461;-48
2022/09/17 01:41:22;;;;;;;19.93;15.90;;;;;;;12.60;100.00;100291.38;5051994;28;20451;-50
2022/09/17 01:43:55;;;;;;;31.63;16.83;;;;;;;12.62;100.00;100299.19;5051170;28;21053;-52
2022/09/17 01:46:31;;;;;;;26.13;15.83;;;;;;;12.58;100.00;100298.81;5051859;28;20423;-52
2022/09/17 01:49:02;;;;;;;23.43;16.00;;;;;;;12.55;100.00;100304.59;5051691;28;20471;-52
2022/09/17 01:51:36;;;;;;;20.63;17.10;;;;;;;12.50;100.00;100303.63;5051266;28;20482;-51
2022/09/17 01:54:07;;;;;;;20.30;15.40;;;;;;;12.43;100.00;100300.16;5048875;28;20532;-52
2022/09/17 01:56:40;;;;;;;25.20;16.63;;;;;;;12.35;100.00;100295.94;5051701;28;20473;-53
2022/09/17 01:59:15;;;;;;;22.97;15.87;;;;;;;12.38;100.00;100300.84;5051501;28;20450;-51
2022/09/17 02:01:50;;;;;;;25.67;17.53;;;;;;;12.31;100.00;100305.41;5051476;28;20539;-49
2022/09/17 02:04:23;;;;;;;20.13;15.70;;;;;;;12.26;100.00;100304.44;5051377;28;20439;-48
2022/09/17 02:06:57;;;;;;;26.53;15.60;;;;;;;12.13;100.00;100311.53;5051679;28;20908;-50
2022/09/17 02:09:29;;;;;;;27.47;15.57;;;;;;;12.10;100.00;100311.94;5051587;28;20431;-50
2022/09/17 02:12:02;;;;;;;28.83;17.30;;;;;;;12.05;100.00;100303.78;5050903;28;20460;-50
2022/09/17 02:14:35;;;;;;;20.43;16.20;;;;;;;11.98;100.00;100302.16;5051541;28;20471;-48
2022/09/17 02:17:10;;;;;;;24.57;15.90;;;;;;;11.94;100.00;100299.13;5051589;28;20450;-50
2022/09/17 02:19:40;;;;;;;19.33;16.20;;;;;;;11.88;100.00;100297.31;5051525;28;21014;-48
2022/09/17 02:22:18;;;;;;;25.63;18.00;;;;;;;11.83;100.00;100293.63;5050591;28;20463;-47
2022/09/17 02:24:52;;;;;;;22.33;16.23;;;;;;;11.80;100.00;100302.13;5051585;28;20424;-48
2022/09/17 02:27:28;;;;;;;17.67;15.57;;;;;;;11.75;100.00;100297.41;5051504;28;20435;-48
2022/09/17 02:29:55;;;;;;;29.17;17.07;;;;;;;11.75;100.00;100302.75;5051380;28;20427;-47
2022/09/17 02:32:24;;;;;;;20.77;15.77;;;;;;;11.73;100.00;100306.66;5050492;28;20982;-49
2022/09/17 02:34:52;;;;;;;22.60;16.07;;;;;;;11.70;100.00;100307.09;5051473;28;20525;-51
2022/09/17 02:37:19;;;;;;;19.17;16.40;;;;;;;11.66;100.00;100304.00;5051170;28;20945;-50
2022/09/17 02:39:47;;;;;;;25.70;16.27;;;;;;;11.61;100.00;100299.31;5051416;28;20798;-48
2022/09/17 02:42:22;;;;;;;19.57;16.30;;;;;;;11.59;100.00;100305.88;5050552;28;20530;-50
2022/09/17 02:45:00;;;;;;;24.27;16.63;;;;;;;11.54;100.00;100305.69;5051255;28;20423;-49
2022/09/17 02:48:06;;;;;;;18.43;16.30;;;;;;;11.54;100.00;100301.19;5051601;28;20513;-50
2022/09/17 02:50:46;;;;;;;17.77;15.93;;;;;;;11.51;100.00;100303.44;5019470;28;20481;-47
2022/09/17 02:53:27;;;;;;;24.97;15.70;;;;;;;11.43;100.00;100306.38;5054187;28;20871;-47
2022/09/17 02:56:02;;;;;;;18.30;16.43;;;;;;;11.41;100.00;100295.91;5055198;28;20466;-48
2022/09/17 02:58:34;;;;;;;18.73;16.83;;;;;;;11.37;100.00;100302.72;5055064;28;20854;-48
2022/09/17 03:01:07;;;;;;;24.70;17.27;;;;;;;11.33;100.00;100304.16;5054840;28;20458;-51
2022/09/17 03:03:40;;;;;;;30.43;17.47;;;;;;;11.29;100.00;100302.13;5054351;28;20486;-50
2022/09/17 03:06:08;;;;;;;21.03;16.07;;;;;;;11.28;100.00;100305.81;5055120;28;20430;-51
2022/09/17 03:08:38;;;;;;;17.83;16.07;;;;;;;11.24;100.00;100310.75;5054942;28;20457;-48
2022/09/17 03:11:08;;;;;;;25.23;16.50;;;;;;;11.23;100.00;100305.66;5054808;28;20455;-47
2022/09/17 03:13:36;;;;;;;27.20;17.87;;;;;;;11.20;100.00;100304.19;5053997;28;21058;-50
2022/09/17 03:16:04;;;;;;;17.13;15.53;;;;;;;11.20;100.00;100304.19;5054657;28;20540;-47
2022/09/17 03:18:32;;;;;;;23.03;17.00;;;;;;;11.20;100.00;100314.88;5054526;28;20435;-47
2022/09/17 03:21:01;;;;;;;21.90;16.10;;;;;;;11.15;100.00;100311.19;5054679;28;20462;-47
2022/09/17 03:23:28;;;;;;;25.70;16.13;;;;;;;11.18;100.00;100318.78;5053731;28;20459;-48
2022/09/17 03:25:56;;;;;;;18.50;15.93;;;;;;;11.15;100.00;100319.22;5054547;28;20848;-48
2022/09/17 03:28:25;;;;;;;22.20;16.50;;;;;;;11.15;100.00;100319.22;5054304;28;20439;-47
2022/09/17 03:30:53;;;;;;;26.30;16.07;;;;;;;11.16;100.00;100323.53;5054175;28;20455;-50
2022/09/17 03:33:21;;;;;;;23.53;16.70;;;;;;;11.11;100.00;100314.28;5053619;28;20459;-49
2022/09/17 03:35:49;;;;;;;18.77;15.70;;;;;;;11.10;100.00;100309.19;5054375;28;20467;-48
2022/09/17 03:38:18;;;;;;;23.30;16.17;;;;;;;11.09;100.00;100313.69;5054128;28;20497;-47
2022/09/17 03:40:56;;;;;;;23.93;16.80;;;;;;;11.09;100.00;100310.19;5054081;28;20505;-48
2022/09/17 03:43:24;;;;;;;20.70;15.40;;;;;;;11.08;100.00;100309.38;5053365;28;20471;-48
2022/09/17 03:45:52;;;;;;;20.33;15.83;;;;;;;11.09;100.00;100312.88;5054305;28;20492;-50
2022/09/17 03:48:20;;;;;;;29.43;17.30;;;;;;;11.04;100.00;100315.34;5054105;28;20432;-48
2022/09/17 03:50:47;;;;;;;22.83;15.63;;;;;;;11.00;100.00;100309.59;5054072;28;20451;-50
2022/09/17 03:53:15;;;;;;;24.30;15.50;;;;;;;10.97;100.00;100307.34;5049453;28;20462;-48
2022/09/17 03:55:44;;;;;;;18.70;16.03;;;;;;;10.91;100.00;100302.03;5053817;28;20467;-49
2022/09/17 03:58:12;;;;;;;22.03;16.47;;;;;;;10.87;100.00;100311.50;5054065;28;20501;-48
2022/09/17 04:00:39;;;;;;;23.40;15.10;;;;;;;10.80;100.00;100308.03;5052509;28;20493;-47
2022/09/17 04:03:07;;;;;;;24.07;14.97;;;;;;;10.74;100.00;100307.00;5053270;28;20494;-52
2022/09/17 04:05:34;;;;;;;19.57;14.67;;;;;;;10.68;100.00;100299.84;5053773;28;20488;-54
2022/09/17 04:08:02;;;;;;;21.03;14.10;;;;;;;10.64;100.00;100303.94;5053732;28;20485;-52
2022/09/17 04:10:30;;;;;;;19.77;13.73;;;;;;;10.59;100.00;100301.06;5053401;28;20495;-52
2022/09/17 04:12:59;;;;;;;22.43;14.50;;;;;;;10.55;100.00;100307.84;5052826;28;21062;-47
2022/09/17 04:15:26;;;;;;;21.33;14.43;;;;;;;10.50;100.00;100308.47;5053376;28;20470;-47
2022/09/17 04:17:56;;;;;;;27.83;15.80;;;;;;;10.48;100.00;100309.72;5053672;28;20482;-54
2022/09/17 04:20:24;;;;;;;17.60;14.83;;;;;;;10.44;100.00;100301.31;5053367;28;20489;-55
2022/09/17 04:22:52;;;;;;;20.20;15.73;;;;;;;10.39;100.00;100306.41;5052660;28;20462;-55
2022/09/17 04:25:20;;;;;;;21.37;14.83;;;;;;;10.38;100.00;100306.63;5053405;28;20836;-51
2022/09/17 04:27:47;;;;;;;18.93;14.80;;;;;;;10.37;100.00;100302.31;5053535;28;20439;-52
2022/09/17 04:30:17;;;;;;;17.73;14.83;;;;;;;10.36;100.00;100300.69;5053358;28;20501;-51
2022/09/17 04:32:45;;;;;;;24.83;14.67;;;;;;;10.36;100.00;100298.81;5052579;28;20513;-54
2022/09/17 04:35:13;;;;;;;22.67;14.17;;;;;;;10.37;100.00;100303.13;5053060;28;20427;-53
2022/09/17 04:37:41;;;;;;;20.77;14.90;;;;;;;10.38;100.00;100302.13;5053032;28;20427;-53
2022/09/17 04:40:09;;;;;;;17.73;15.90;;;;;;;10.40;100.00;100308.06;5053160;28;20436;-52
2022/09/17 04:42:37;;;;;;;23.50;14.77;;;;;;;10.41;100.00;100299.06;5052300;28;20467;-55
2022/09/17 04:45:06;;;;;;;16.43;14.80;;;;;;;10.43;100.00;100302.31;5052922;28;20435;-54
2022/09/17 04:47:38;;;;;;;15.30;13.80;;;;;;;10.44;100.00;100301.31;5052944;28;20439;-52
2022/09/17 04:50:06;;;;;;;23.13;16.20;;;;;;;10.46;100.00;100304.56;5052728;28;20431;-53
2022/09/17 04:52:34;;;;;;;18.93;14.10;;;;;;;10.48;100.00;100302.50;5046651;28;20487;-51
2022/09/17 04:55:01;;;;;;;26.77;14.10;;;;;;;10.50;100.00;100304.97;5050419;28;20427;-52
2022/09/17 04:57:29;;;;;;;22.30;14.10;;;;;;;10.50;100.00;100291.66;5052693;28;20475;-53
2022/09/17 04:59:56;;;;;;;20.37;15.20;;;;;;;10.52;100.00;100302.91;5052677;28;20480;-51
2022/09/17 05:02:24;;;;;;;15.63;14.03;;;;;;;10.55;100.00;100305.19;5051754;28;20513;-46
2022/09/17 05:04:54;;;;;;;24.87;15.23;;;;;;;10.59;100.00;100294.91;5052819;28;20840;-45
2022/09/17 05:07:21;;;;;;;18.53;15.10;;;;;;;10.61;100.00;100301.69;5052734;28;20432;-46
2022/09/17 05:09:49;;;;;;;20.90;14.60;;;;;;;10.63;100.00;100304.97;5052585;28;20485;-55
2022/09/17 05:12:16;;;;;;;23.27;15.33;;;;;;;10.66;100.00;100304.56;5051361;28;20467;-52
2022/09/17 05:14:44;;;;;;;18.47;14.77;;;;;;;10.68;100.00;100315.00;5052440;28;20427;-53
2022/09/17 05:17:12;;;;;;;16.10;14.77;;;;;;;10.71;100.00;100311.94;5052252;28;20521;-54
2022/09/17 05:19:39;;;;;;;26.07;14.43;;;;;;;10.74;100.00;100304.34;5052482;28;20439;-53
2022/09/17 05:22:08;;;;;;;16.87;14.90;;;;;;;10.81;100.00;100312.34;5051810;28;20863;-53
2022/09/17 05:24:38;;;;;;;16.90;15.50;;;;;;;10.84;100.00;100312.72;5052112;28;20469;-53
2022/09/17 05:27:05;;;;;;;23.57;14.40;;;;;;;10.89;100.00;100312.94;5052200;28;20434;-55
2022/09/17 05:29:33;;;;;;;24.53;14.90;;;;;;;10.96;100.00;100307.59;5051989;28;20435;-49
2022/09/17 05:32:01;;;;;;;20.33;15.17;;;;;;;11.03;100.00;100316.38;5051676;28;20454;-54
2022/09/17 05:34:29;;;;;;;14.67;13.20;;;;;;;11.09;100.00;100302.19;5052134;28;20490;-55
2022/09/17 05:36:56;;;;;;;18.60;14.93;;;;;;;11.14;100.00;100307.69;5051834;28;20528;-51
2022/09/17 05:39:25;;;;;;;18.57;14.40;;;;;;;11.21;100.00;100310.34;5051793;28;21007;-52
2022/09/17 05:41:53;;;;;;;18.27;13.10;;;;;;;11.27;100.00;100313.00;5051344;28;20459;-53
2022/09/17 05:44:21;;;;;;;17.83;13.53;;;;;;;11.30;100.00;100307.25;5051611;28;20924;-50
2022/09/17 05:46:48;;;;;;;33.03;15.97;;;;;;;11.30;100.00;100309.91;5052015;28;20427;-50
2022/09/17 05:49:16;;;;;;;18.50;13.77;;;;;;;11.37;100.00;100304.56;5051962;28;20435;-52
2022/09/17 05:51:43;;;;;;;16.30;13.30;;;;;;;11.54;100.00;100308.38;5051322;28;20509;-50
2022/09/17 05:54:11;;;;;;;15.87;14.23;;;;;;;11.72;100.00;100308.50;5050820;28;20489;-52
2022/09/17 05:56:40;;;;;;;20.27;13.97;;;;;;;11.87;100.00;100311.72;5051635;28;20463;-55
2022/09/17 05:59:07;;;;;;;20.90;14.33;;;;;;;12.36;100.00;100316.28;5051639;28;21019;-50
2022/09/17 06:01:35;;;;;;;22.60;14.60;;;;;;;13.04;100.00;100314.41;5051534;28;20466;-55
2022/09/17 06:04:03;;;;;;;16.37;14.73;;;;;;;13.65;100.00;100308.91;5050969;28;20463;-53
2022/09/17 06:06:31;;;;;;;20.33;14.70;;;;;;;14.30;100.00;100314.38;5040571;28;20432;-52
2022/09/17 06:08:59;;;;;;;17.37;15.13;;;;;;;14.86;100.00;100309.28;5030985;28;20490;-55
2022/09/17 06:11:27;;;;;;;25.53;16.17;;;;;;;15.49;97.26;100303.09;5031175;28;20502;-53
2022/09/17 06:13:56;;;;;;;18.10;14.10;;;;;;;15.99;88.86;100312.13;4983346;28;20485;-51
2022/09/17 06:16:24;;;;;;;15.03;12.73;;;;;;;16.44;83.72;100308.56;5031399;28;20499;-54
2022/09/17 06:18:52;;;;;;;16.30;13.80;;;;;;;16.85;79.83;100310.00;5031550;28;20436;-55
2022/09/17 06:21:21;;;;;;;19.17;12.27;;;;;;;17.29;78.12;100316.25;5031041;28;20509;-56
2022/09/17 06:23:49;;;;;;;13.57;12.07;;;;;;;17.67;76.74;100306.25;5033578;28;20486;-51
2022/09/17 06:26:17;;;;;;;11.60;10.60;;;;;;;18.02;72.29;100313.88;5034970;28;20459;-51
2022/09/17 06:28:45;;;;;;;13.90;11.60;;;;;;;18.34;72.34;100310.38;5035602;28;20485;-55
2022/09/17 06:31:14;;;;;;;12.30;9.30;;;;;;;18.43;66.11;100312.31;5035348;28;20463;-54
2022/09/17 06:33:42;;;;;;;17.63;9.50;;;;;;;18.63;66.55;100315.22;5035305;28;20427;-55
2022/09/17 06:36:11;;;;;;;17.10;9.53;;;;;;;18.87;67.96;100315.66;5034166;28;20536;-54
2022/09/17 06:38:41;;;;;;;16.43;8.30;;;;;;;18.85;64.21;100319.66;5035254;28;20485;-50
2022/09/17 06:41:09;;;;;;;11.00;8.00;;;;;;;19.06;66.92;100314.13;5035355;28;20463;-54
2022/09/17 06:43:37;;;;;;;18.83;7.10;;;;;;;19.14;63.64;100310.13;5033289;28;20560;-50
2022/09/17 06:46:07;;;;;;;13.57;7.13;;;;;;;19.25;65.12;100309.91;5034722;28;20471;-49
2022/09/17 06:48:38;;;;;;;16.20;6.47;;;;;;;19.61;63.00;100313.56;5035191;28;20845;-48
2022/09/17 06:51:07;;;;;;;10.47;6.87;;;;;;;19.85;61.68;100314.72;5033992;28;20482;-49
2022/09/17 06:53:36;;;;;;;15.80;7.03;;;;;;;19.93;59.67;100307.97;5048721;28;20419;-54
2022/09/17 06:56:05;;;;;;;13.63;6.93;;;;;;;19.86;60.73;100307.44;5054514;28;20824;-49
2022/09/17 06:58:35;;;;;;;15.47;7.37;;;;;;;19.64;59.91;100314.94;5054951;28;20581;-51
2022/09/17 07:03:31;;;;;;;11.30;6.67;;;;;;;19.69;60.99;100312.22;5093899;23;20568;-44
2022/09/17 07:06:00;;;;;;;11.13;6.47;;;;;;;19.52;60.67;100317.06;5074806;28;20253;-43
2022/09/17 07:08:27;;;;;;;13.87;7.10;;;;;;;19.03;59.97;100311.94;5075066;28;20486;-44
2022/09/17 07:10:56;;;;;;;8.80;6.83;;;;;;;18.46;66.18;100311.81;5074914;28;20430;-45
2022/09/17 07:13:24;;;;;;;12.70;7.30;;;;;;;18.08;67.00;100314.72;5074513;28;20446;-46
2022/09/17 07:15:53;;;;;;;16.93;6.40;;;;;;;18.01;68.36;100320.31;5073746;28;20462;-42
2022/09/17 07:18:22;;;;;;;14.97;6.63;;;;;;;17.64;69.37;100314.84;5074447;28;20470;-43
2022/09/17 07:20:53;;;;;;;14.17;6.87;;;;;;;17.41;70.11;100323.13;5074766;28;20426;-43
2022/09/17 07:23:23;;;;;;;16.27;6.80;;;;;;;17.23;72.36;100320.78;5073298;28;20495;-44
2022/09/17 07:25:52;;;;;;;14.73;6.57;;;;;;;16.98;73.97;100318.56;5070606;28;20466;-43
2022/09/17 07:28:19;;;;;;;15.63;7.00;;;;;;;16.65;74.35;100332.06;5069813;28;20869;-43
2022/09/17 07:30:47;;;;;;;11.67;6.63;;;;;;;16.49;75.62;100330.16;5069080;28;20495;-42
2022/09/17 07:33:16;;;;;;;19.43;7.30;;;;;;;16.40;77.23;100328.94;5071813;28;20537;-42
2022/09/17 07:35:43;;;;;;;17.13;7.60;;;;;;;16.35;77.57;100328.84;5072031;28;20582;-45
2022/09/17 07:38:11;;;;;;;15.63;6.80;;;;;;;16.32;77.26;100323.97;5070229;28;20998;-41
2022/09/17 07:40:40;;;;;;;14.53;6.63;;;;;;;16.27;76.59;100330.09;5072834;28;20841;-41
2022/09/17 07:43:08;;;;;;;16.43;7.90;;;;;;;16.22;77.80;100331.88;5072209;28;20458;-44
2022/09/17 07:45:36;;;;;;;10.27;5.90;;;;;;;16.18;78.93;100328.84;5066047;28;20507;-42
2022/09/17 07:48:04;;;;;;;14.67;6.87;;;;;;;16.23;79.53;100326.25;5073385;28;20480;-44
2022/09/17 07:50:32;;;;;;;14.13;6.30;;;;;;;16.49;79.96;100332.84;5069983;28;20814;-41
2022/09/17 07:52:59;;;;;;;6.93;5.93;;;;;;;16.73;78.23;100323.56;5073113;28;20449;-39
2022/09/17 07:55:27;;;;;;;16.67;6.23;;;;;;;16.76;75.44;100325.75;5072102;28;20539;-40
2022/09/17 07:57:56;;;;;;;9.00;6.20;;;;;;;16.79;76.14;100316.38;5073437;28;20462;-42
2022/09/17 08:00:24;;;;;;;10.33;5.80;;;;;;;16.86;77.80;100325.09;5072618;28;20452;-41
2022/09/17 08:02:55;;;;;;;11.83;6.57;;;;;;;17.00;77.56;100318.28;5070364;28;20466;-42
2022/09/17 08:05:23;;;;;;;11.30;6.27;;;;;;;16.94;77.47;100311.19;5072252;28;20458;-43
2022/09/17 08:07:51;;;;;;;13.27;6.27;;;;;;;16.92;77.87;100316.84;5072985;28;20423;-43
2022/09/17 08:10:20;;;;;;;13.13;5.60;;;;;;;16.96;76.19;100309.09;5072822;28;20860;-44
2022/09/17 08:12:48;;;;;;;12.40;6.70;;;;;;;16.92;76.83;100306.06;5067690;28;20458;-42
2022/09/17 08:15:18;;;;;;;6.50;5.47;;;;;;;16.82;75.40;100315.88;5070458;28;20458;-42
2022/09/17 08:17:46;;;;;;;11.90;6.50;;;;;;;16.73;77.11;100320.06;5072007;28;20512;-42
2022/09/17 08:20:15;;;;;;;8.27;5.27;;;;;;;16.78;75.74;100320.97;5072910;28;20846;-41
2022/09/17 08:22:43;;;;;;;11.50;6.10;;;;;;;16.86;76.69;100314.34;5071966;28;20450;-41
2022/09/17 08:25:16;;;;;;;8.70;6.50;;;;;;;16.65;74.89;100313.22;5070983;28;20492;-43
2022/09/17 08:27:44;;;;;;;11.43;6.00;;;;;;;16.69;74.58;100316.25;5072022;28;20479;-42
2022/09/17 08:30:12;;;;;;;9.30;6.10;;;;;;;16.89;76.13;100320.03;5072450;28;20492;-41
2022/09/17 08:32:41;;;;;;;6.63;5.87;;;;;;;16.94;75.77;100319.28;5071939;28;20450;-42
2022/09/17 08:35:10;;;;;;;8.70;5.40;;;;;;;16.94;75.84;100322.78;5071400;28;20487;-44
2022/09/17 08:37:38;;;;;;;7.67;6.40;;;;;;;17.15;74.44;100329.28;5064060;28;20499;-42
2022/09/17 08:40:06;;;;;;;11.60;6.00;;;;;;;17.61;75.49;100318.03;5072141;28;20460;-42
2022/09/17 08:42:41;;;;;;;16.27;5.83;;;;;;;17.72;72.99;100315.44;5071825;28;20454;-40
2022/09/17 08:45:17;;;;;;;11.17;5.67;;;;;;;17.83;71.34;100312.59;5070413;28;20469;-41
2022/09/17 08:47:48;;;;;;;6.10;5.50;;;;;;;18.36;71.24;100300.94;5072766;28;20430;-40
2022/09/17 08:50:27;;;;;;;6.43;5.83;;;;;;;18.37;69.57;100307.94;5069619;28;20444;-42
2022/09/17 08:53:15;;;;;;;12.23;5.93;;;;;;;18.12;69.15;100313.16;5067282;28;20450;-41
2022/09/17 08:55:45;;;;;;;22.40;6.90;;;;;;;17.81;69.76;100316.59;5068095;28;20477;-41
2022/09/17 08:58:29;;;;;;;16.03;7.80;;;;;;;17.30;72.71;100320.56;5067930;28;20473;-43
2022/09/17 09:01:07;;;;;;;13.70;6.30;;;;;;;17.35;73.56;100313.34;5071833;28;20442;-42
2022/09/17 09:03:50;;;;;;;14.20;6.67;;;;;;;17.27;71.74;100316.50;5072187;28;20430;-42
2022/09/17 09:06:24;;;;;;;14.10;6.17;;;;;;;17.32;73.56;100311.19;5066923;28;20855;-40
2022/09/17 09:08:57;;;;;;;16.60;7.40;;;;;;;17.49;74.02;100308.41;5071754;28;20418;-39
2022/09/17 09:11:29;;;;;;;11.60;6.30;;;;;;;17.50;74.89;100313.53;5070820;28;20507;-42
2022/09/17 09:14:04;;;;;;;11.20;6.30;;;;;;;17.94;75.44;100314.34;5070663;28;20434;-44
2022/09/17 09:16:34;;;;;;;8.00;6.10;;;;;;;18.28;72.53;100311.41;5063171;28;20996;-40
2022/09/17 09:19:14;;;;;;;11.60;6.30;;;;;;;18.73;72.15;100309.88;5069961;28;21242;-44
2022/09/17 09:21:52;;;;;;;8.10;6.10;;;;;;;19.20;70.27;100314.47;5070403;28;20520;-41
2022/09/17 09:24:25;;;;;;;11.43;5.93;;;;;;;19.14;66.88;100307.41;5068310;28;20526;-42
2022/09/17 09:27:01;;;;;;;10.53;5.60;;;;;;;18.71;65.77;100306.63;5069350;28;20923;-40
2022/09/17 09:29:41;;;;;;;8.07;6.20;;;;;;;18.43;68.11;100308.84;5067869;28;20475;-44
2022/09/17 09:32:21;;;;;;;12.27;5.97;;;;;;;18.34;68.92;100305.78;5070152;28;20457;-43
2022/09/17 09:34:51;;;;;;;10.83;5.83;;;;;;;18.19;67.52;100305.63;5070443;28;20461;-42
2022/09/17 09:37:23;;;;;;;14.50;6.80;;;;;;;18.17;68.75;100311.31;5070648;28;20942;-40
2022/09/17 09:39:53;;;;;;;15.27;6.73;;;;;;;18.12;67.85;100313.16;5069729;28;20462;-41
2022/09/17 09:42:29;;;;;;;6.90;6.17;;;;;;;17.96;66.36;100311.38;5070022;28;20481;-41
2022/09/17 09:44:59;;;;;;;13.33;6.37;;;;;;;18.22;69.45;100313.22;5070899;28;20449;-40
2022/09/17 09:47:53;;;;;;;8.30;7.10;;;;;;;18.48;65.46;100314.25;5070729;28;20910;-45
2022/09/17 09:50:35;;;;;;;10.10;6.47;;;;;;;18.64;67.64;100305.22;5067261;28;20606;-42
2022/09/17 09:53:32;;;;;;;10.17;5.83;;;;;;;18.92;68.04;100304.84;5067077;28;20488;-41
2022/09/17 09:56:10;;;;;;;7.97;6.90;;;;;;;19.12;66.75;100301.44;5069530;28;20461;-42
2022/09/17 09:58:39;;;;;;;7.37;6.53;;;;;;;18.96;64.97;100316.78;5070045;28;20489;-43
2022/09/17 10:01:12;;;;;;;6.60;6.00;;;;;;;18.32;66.00;100317.91;5069820;28;20499;-40
2022/09/17 10:03:42;;;;;;;19.83;6.60;;;;;;;17.18;74.91;100339.56;5069731;28;20496;-41
2022/09/17 10:06:13;;;;;;;15.57;6.63;;;;;;;16.35;79.28;100347.69;5067974;28;20523;-39
2022/09/17 10:08:42;;;;;;;12.53;4.83;;;;;;;15.72;83.68;100334.44;5069908;28;20822;-40
2022/09/17 10:11:20;;;;;;;10.53;4.03;;;;;;;15.22;90.79;100345.78;5070112;28;20492;-39
2022/09/17 10:13:48;;;;;;;11.60;4.37;;;;;;;14.82;99.02;100353.75;5069623;28;20827;-39
2022/09/17 10:16:18;;;;;;;9.43;4.27;;;;;;;14.57;100.00;100352.34;5068427;28;20512;-39
2022/09/17 10:18:46;;;;;;;10.40;4.20;;;;;;;14.41;100.00;100353.81;5069897;28;20476;-39
2022/09/17 10:21:22;;;;;;;10.23;4.80;;;;;;;14.37;100.00;100342.75;5070113;28;21000;-43
2022/09/17 10:23:50;;;;;;;7.37;4.10;;;;;;;14.43;100.00;100341.00;5068002;28;20440;-43
2022/09/17 10:26:24;;;;;;;8.13;4.90;;;;;;;14.48;100.00;100334.94;5070153;28;20539;-40
2022/09/17 10:28:54;;;;;;;9.40;3.57;;;;;;;14.59;100.00;100329.59;5051498;28;20843;-41
2022/09/17 10:31:23;;;;;;;7.47;3.00;;;;;;;14.66;100.00;100332.16;5065842;28;20460;-40
2022/09/17 10:33:53;;;;;;;5.67;3.17;;;;;;;14.73;100.00;100336.34;5069808;28;20437;-43
2022/09/17 10:39:29;;;;;;;7.63;3.87;;;;;;;14.86;100.00;100338.81;5086364;27;20508;-42
2022/09/17 10:41:58;;;;;;;7.90;4.47;;;;;;;14.94;100.00;100343.81;5086130;28;20494;-43
2022/09/17 10:44:28;;;;;;;4.87;3.70;;;;;;;14.88;100.00;100323.28;5085384;28;20430;-40
2022/09/17 10:47:02;;;;;;;6.70;3.93;;;;;;;14.91;100.00;100324.66;5049058;28;21078;-42
2022/09/17 10:49:39;;;;;;;6.73;4.40;;;;;;;14.95;100.00;100328.53;5049512;28;20415;-41
2022/09/17 10:52:10;;;;;;;7.83;4.00;;;;;;;14.96;100.00;100325.59;5048705;28;20501;-39
2022/09/17 10:55:07;;;;;;;9.40;4.30;;;;;;;14.99;100.00;100328.88;5048415;28;20509;-47
2022/09/17 10:58:11;;;;;;;7.90;3.77;;;;;;;15.04;100.00;100328.97;5049195;28;20501;-43
2022/09/17 11:01:00;;;;;;;5.00;3.90;;;;;;;15.07;100.00;100325.84;5050375;28;20434;-40
2022/09/17 11:04:08;;;;;;;8.50;3.50;;;;;;;15.13;100.00;100320.34;5050771;28;20455;-39
2022/09/17 11:06:59;;;;;;;7.50;3.50;;;;;;;15.27;100.00;100327.06;5049555;28;20471;-42
2022/09/17 11:09:39;;;;;;;5.20;4.20;;;;;;;15.29;100.00;100324.97;5047652;28;21187;-40
2022/09/17 11:12:25;;;;;;;7.40;3.47;;;;;;;15.14;100.00;100323.84;5048625;28;20516;-40
2022/09/17 11:15:01;;;;;;;6.00;3.90;;;;;;;15.26;100.00;100320.06;5048242;28;21135;-42
2022/09/17 11:17:48;;;;;;;5.33;3.53;;;;;;;15.30;100.00;100329.28;5048552;28;20470;-41
2022/09/17 11:20:32;;;;;;;5.27;3.47;;;;;;;15.34;100.00;100329.63;5048192;28;20895;-45
2022/09/17 11:23:14;;;;;;;7.00;4.17;;;;;;;15.25;100.00;100334.56;5048357;28;20497;-44
2022/09/17 11:25:49;;;;;;;4.97;3.60;;;;;;;15.28;100.00;100330.59;5048085;28;20466;-40
2022/09/17 11:28:41;;;;;;;9.07;4.20;;;;;;;15.40;100.00;100329.50;5048870;28;20427;-44
2022/09/17 11:31:21;;;;;;;7.70;3.70;;;;;;;15.35;100.00;100325.91;5048478;28;20439;-42
2022/09/17 11:34:22;;;;;;;10.77;3.90;;;;;;;15.28;100.00;100328.72;5048275;28;20431;-42
2022/09/17 11:36:57;;;;;;;7.00;3.77;;;;;;;15.13;100.00;100322.19;5035175;28;20510;-42